createdAt,value
2022-11-29T00:00:10.466Z,4.30
2022-11-29T00:02:43.982Z,4.38
2022-11-29T00:05:11.893Z,4.47
2022-11-29T00:19:04.553Z,4.43
2022-11-29T00:21:53.147Z,4.30
2022-11-29T00:24:21.404Z,4.40
2022-11-29T00:26:49.796Z,4.21
2022-11-29T00:29:17.720Z,4.52
2022-11-29T00:31:45.289Z,4.33
2022-11-29T00:34:13.188Z,4.17
2022-11-29T00:36:41.120Z,4.29
2022-11-29T00:39:11.969Z,4.13
2022-11-29T00:41:40.091Z,4.10
2022-11-29T00:44:08.737Z,3.93
2022-11-29T00:46:36.207Z,3.94
2022-11-29T00:49:04.428Z,4.14
2022-11-29T00:51:32.484Z,4.30
2022-11-29T00:54:00.026Z,4.43
2022-11-29T00:56:28.015Z,4.55
2022-11-29T00:58:55.611Z,4.55
2022-11-29T01:01:23.695Z,4.81
2022-11-29T01:03:51.806Z,4.84
2022-11-29T01:06:19.508Z,4.90
2022-11-29T01:08:48.329Z,5.16
2022-11-29T01:11:18.053Z,4.68
2022-11-29T01:13:45.651Z,4.78
2022-11-29T01:16:14.395Z,4.71
2022-11-29T01:18:42.893Z,4.73
2022-11-29T01:21:22.050Z,4.45
2022-11-29T01:23:51.042Z,4.33
2022-11-29T01:26:29.694Z,4.46
2022-11-29T01:28:59.070Z,4.43
2022-11-29T01:31:29.659Z,4.48
2022-11-29T01:34:00.124Z,4.81
2022-11-29T01:36:28.086Z,4.85
2022-11-29T01:39:22.502Z,5.04
2022-11-29T01:42:14.245Z,4.71
2022-11-29T01:45:04.504Z,4.45
2022-11-29T01:47:44.884Z,4.74
2022-11-29T01:50:29.171Z,4.41
2022-11-29T01:52:56.708Z,4.12
2022-11-29T01:55:25.191Z,3.75
2022-11-29T01:57:52.872Z,4.41
2022-11-29T02:00:21.060Z,4.28
2022-11-29T02:03:13.393Z,4.30
2022-11-29T02:05:43.767Z,4.67
2022-11-29T02:08:13.736Z,4.72
2022-11-29T02:11:09.780Z,4.49
2022-11-29T02:14:00.532Z,4.14
2022-11-29T02:16:56.409Z,4.09
2022-11-29T02:19:38.957Z,4.23
2022-11-29T02:22:17.726Z,4.13
2022-11-29T02:24:57.946Z,4.18
2022-11-29T02:27:30.024Z,4.27
2022-11-29T02:30:16.369Z,4.24
2022-11-29T02:32:50.090Z,3.94
2022-11-29T02:35:41.248Z,4.01
2022-11-29T02:38:24.314Z,4.09
2022-11-29T02:41:03.939Z,3.88
2022-11-29T02:43:31.880Z,4.16
2022-11-29T02:46:22.612Z,3.93
2022-11-29T02:49:17.208Z,3.74
2022-11-29T02:51:49.753Z,3.64
2022-11-29T02:54:57.411Z,3.83
2022-11-29T02:57:38.982Z,3.98
2022-11-29T03:00:09.025Z,3.74
2022-11-29T03:02:48.331Z,4.12
2022-11-29T03:05:42.912Z,3.85
2022-11-29T03:08:29.358Z,4.07
2022-11-29T03:11:20.478Z,4.22
2022-11-29T03:13:53.089Z,4.40
2022-11-29T03:17:03.063Z,4.00
2022-11-29T03:20:08.278Z,3.94
2022-11-29T03:23:01.488Z,3.85
2022-11-29T03:25:33.509Z,4.06
2022-11-29T03:28:07.422Z,4.16
2022-11-29T03:30:38.119Z,4.36
2022-11-29T03:33:12.939Z,4.05
2022-11-29T03:35:49.782Z,3.92
2022-11-29T03:38:32.956Z,4.40
2022-11-29T03:41:28.336Z,4.16
2022-11-29T03:44:11.472Z,3.99
2022-11-29T03:46:57.280Z,4.10
2022-11-29T03:50:03.646Z,4.15
2022-11-29T03:52:33.211Z,3.53
2022-11-29T03:55:12.610Z,3.56
2022-11-29T03:58:19.334Z,3.96
2022-11-29T04:00:50.360Z,3.68
2022-11-29T04:03:46.944Z,3.80
2022-11-29T04:06:24.495Z,3.89
2022-11-29T04:09:03.051Z,3.82
2022-11-29T04:12:06.885Z,3.85
2022-11-29T04:14:40.784Z,3.89
2022-11-29T04:17:42.611Z,3.73
2022-11-29T04:20:26.269Z,4.07
2022-11-29T04:23:28.345Z,4.00
2022-11-29T04:26:24.307Z,4.32
2022-11-29T04:29:06.714Z,4.18
2022-11-29T04:31:59.771Z,4.17
2022-11-29T04:34:45.665Z,4.25
2022-11-29T04:37:48.621Z,4.23
2022-11-29T04:40:25.850Z,4.51
2022-11-29T04:43:19.629Z,3.79
2022-11-29T04:46:11.222Z,3.75
2022-11-29T04:48:42.069Z,3.70
2022-11-29T04:51:48.245Z,3.78
2022-11-29T04:54:25.933Z,3.91
2022-11-29T04:57:07.593Z,3.72
2022-11-29T04:59:45.033Z,3.96
2022-11-29T05:02:33.730Z,3.94
2022-11-29T05:05:39.642Z,3.99
2022-11-29T05:08:12.871Z,4.23
2022-11-29T05:11:29.222Z,3.84
2022-11-29T05:14:21.763Z,4.14
2022-11-29T05:17:05.032Z,4.29
2022-11-29T05:20:10.479Z,3.98
2022-11-29T05:22:49.080Z,4.08
2022-11-29T05:25:45.519Z,3.46
2022-11-29T05:28:40.155Z,4.01
2022-11-29T05:31:30.654Z,4.07
2022-11-29T05:34:34.532Z,3.86
2022-11-29T05:37:37.155Z,4.13
2022-11-29T05:40:20.754Z,4.00
2022-11-29T05:42:57.591Z,4.24
2022-11-29T05:46:08.236Z,4.24
2022-11-29T05:48:35.819Z,4.35
2022-11-29T05:51:41.166Z,3.97
2022-11-29T05:54:23.409Z,4.33
2022-11-29T05:57:26.786Z,3.98
2022-11-29T05:59:55.950Z,3.57
2022-11-29T06:02:27.032Z,4.06
2022-11-29T06:05:13.205Z,3.59
2022-11-29T06:07:51.780Z,3.55
2022-11-29T06:10:23.061Z,3.23
2022-11-29T06:13:22.121Z,3.47
2022-11-29T06:16:18.962Z,3.54
2022-11-29T06:18:59.611Z,3.31
2022-11-29T06:21:45.238Z,3.40
2022-11-29T06:24:36.126Z,3.44
2022-11-29T06:27:16.193Z,3.48
2022-11-29T06:30:02.405Z,3.67
2022-11-29T06:32:48.994Z,3.61
2022-11-29T06:35:28.818Z,3.71
2022-11-29T06:37:58.552Z,3.72
2022-11-29T06:40:26.549Z,3.94
2022-11-29T06:42:54.075Z,3.98
2022-11-29T06:45:25.525Z,4.50
2022-11-29T06:48:05.914Z,4.40
2022-11-29T06:51:00.786Z,4.32
2022-11-29T06:54:08.028Z,4.58
2022-11-29T06:57:12.017Z,4.09
2022-11-29T07:00:03.708Z,3.66
2022-11-29T07:03:06.831Z,3.81
2022-11-29T07:05:59.315Z,4.19
2022-11-29T07:08:39.864Z,4.18
2022-11-29T07:11:22.302Z,4.30
2022-11-29T07:14:14.394Z,4.12
2022-11-29T07:17:07.633Z,3.95
2022-11-29T07:19:55.743Z,3.80
2022-11-29T07:23:17.935Z,3.76
2022-11-29T07:26:33.479Z,4.11
2022-11-29T07:30:07.220Z,4.14
2022-11-29T07:33:25.742Z,4.51
2022-11-29T07:36:16.959Z,4.17
2022-11-29T07:39:31.117Z,3.88
2022-11-29T07:42:09.002Z,4.04
2022-11-29T07:45:12.439Z,3.83
2022-11-29T07:47:41.030Z,3.69
2022-11-29T07:50:28.278Z,4.17
2022-11-29T07:53:04.387Z,4.00
2022-11-29T07:55:57.575Z,3.70
2022-11-29T07:58:29.380Z,3.86
2022-11-29T08:01:17.265Z,3.75
2022-11-29T08:04:06.748Z,3.93
2022-11-29T08:06:49.140Z,4.21
2022-11-29T08:09:49.083Z,4.30
2022-11-29T08:12:19.120Z,4.34
2022-11-29T08:14:47.785Z,4.69
2022-11-29T08:17:15.592Z,4.73
2022-11-29T08:19:44.107Z,4.63
2022-11-29T08:22:25.958Z,4.79
2022-11-29T08:25:08.943Z,4.71
2022-11-29T08:28:03.821Z,4.21
2022-11-29T08:30:43.662Z,4.09
2022-11-29T08:33:38.755Z,3.76
2022-11-29T08:36:19.186Z,3.91
2022-11-29T08:39:08.867Z,3.90
2022-11-29T08:41:44.895Z,3.83
2022-11-29T08:44:26.972Z,3.88
2022-11-29T08:47:29.350Z,4.44
2022-11-29T08:50:17.363Z,3.98
2022-11-29T08:53:30.409Z,4.13
2022-11-29T08:57:04.306Z,4.59
2022-11-29T08:59:06.060Z,4.28
2022-11-29T09:01:45.092Z,3.99
2022-11-29T09:04:38.676Z,4.17
2022-11-29T09:07:20.951Z,4.27
2022-11-29T09:10:08.420Z,4.55
2022-11-29T09:13:02.691Z,4.39
2022-11-29T09:15:43.551Z,4.72
2022-11-29T09:18:28.435Z,4.21
2022-11-29T09:21:13.709Z,4.41
2022-11-29T09:23:59.411Z,4.60
2022-11-29T09:26:42.646Z,4.64
2022-11-29T09:29:33.901Z,4.21
2022-11-29T09:32:01.317Z,4.20
2022-11-29T09:34:29.329Z,3.95
2022-11-29T09:36:56.800Z,3.88
2022-11-29T09:39:24.452Z,3.74
2022-11-29T09:42:31.050Z,4.05
2022-11-29T09:45:10.963Z,3.93
2022-11-29T09:48:05.015Z,3.74
2022-11-29T09:50:37.230Z,4.26
2022-11-29T09:53:21.168Z,4.57
2022-11-29T09:56:12.460Z,4.50
2022-11-29T09:59:14.410Z,4.51
2022-11-29T10:01:54.045Z,4.33
2022-11-29T10:04:26.920Z,3.87
2022-11-29T10:07:13.257Z,4.39
2022-11-29T10:09:51.010Z,4.40
2022-11-29T10:12:29.037Z,4.60
2022-11-29T10:15:20.692Z,4.85
2022-11-29T10:17:55.591Z,4.23
2022-11-29T10:20:30.484Z,4.42
2022-11-29T10:23:33.956Z,4.62
2022-11-29T10:26:02.174Z,4.63
2022-11-29T10:28:32.203Z,4.61
2022-11-29T10:31:08.913Z,4.56
2022-11-29T10:33:40.030Z,4.81
2022-11-29T10:36:29.410Z,4.49
2022-11-29T10:39:00.022Z,4.71
2022-11-29T10:41:28.760Z,4.87
2022-11-29T10:43:58.083Z,4.82
2022-11-29T10:46:30.375Z,5.30
2022-11-29T10:48:59.961Z,4.92
2022-11-29T10:51:27.991Z,4.65
2022-11-29T10:53:56.077Z,5.22
2022-11-29T10:56:29.445Z,5.37
2022-11-29T10:59:06.226Z,4.90
2022-11-29T11:01:38.427Z,5.08
2022-11-29T11:04:09.902Z,4.72
2022-11-29T11:06:51.365Z,5.06
2022-11-29T11:09:28.254Z,4.70
2022-11-29T11:11:58.674Z,4.72
2022-11-29T11:14:29.072Z,4.48
2022-11-29T11:17:16.328Z,4.59
2022-11-29T11:19:54.756Z,5.07
2022-11-29T11:22:24.424Z,5.24
2022-11-29T11:25:05.256Z,5.40
2022-11-29T11:27:40.135Z,4.88
2022-11-29T11:30:20.764Z,5.04
2022-11-29T11:33:15.873Z,4.72
2022-11-29T11:35:43.844Z,4.78
2022-11-29T11:38:17.128Z,4.73
2022-11-29T11:40:45.402Z,4.71
2022-11-29T11:43:20.586Z,4.61
2022-11-29T11:45:53.711Z,5.18
2022-11-29T11:48:22.126Z,4.72
2022-11-29T11:50:49.463Z,4.45
2022-11-29T11:53:24.307Z,4.73
2022-11-29T11:56:12.743Z,4.91
2022-11-29T11:58:43.286Z,4.78
2022-11-29T12:01:25.695Z,4.76
2022-11-29T12:03:59.595Z,4.92
2022-11-29T12:06:36.761Z,5.03
2022-11-29T12:09:36.587Z,4.79
2022-11-29T12:12:26.571Z,5.12
2022-11-29T12:15:24.175Z,5.53
2022-11-29T12:17:57.910Z,5.28
2022-11-29T12:20:53.215Z,5.11
2022-11-29T12:23:27.561Z,5.10
2022-11-29T12:26:04.985Z,5.64
2022-11-29T12:28:34.871Z,5.38
2022-11-29T12:31:37.668Z,5.33
2022-11-29T12:34:05.418Z,5.64
2022-11-29T12:36:46.749Z,5.51
2022-11-29T12:39:23.703Z,5.80
2022-11-29T12:41:58.744Z,5.68
2022-11-29T12:44:47.702Z,5.66
2022-11-29T12:47:35.825Z,6.06
2022-11-29T12:50:17.023Z,5.37
2022-11-29T12:52:48.299Z,5.55
2022-11-29T12:55:24.993Z,5.37
2022-11-29T12:58:18.395Z,5.69
2022-11-29T13:01:12.583Z,5.68
2022-11-29T13:03:58.883Z,5.85
2022-11-29T13:07:12.763Z,5.84
2022-11-29T13:09:48.777Z,6.31
2022-11-29T13:12:39.805Z,5.83
2022-11-29T13:15:10.741Z,5.79
2022-11-29T13:17:51.107Z,5.55
2022-11-29T13:20:52.921Z,5.73
2022-11-29T13:23:45.521Z,5.49
2022-11-29T13:26:24.248Z,5.75
2022-11-29T13:28:52.290Z,5.66
2022-11-29T13:31:25.743Z,5.85
2022-11-29T13:34:12.497Z,5.77
2022-11-29T13:36:58.697Z,5.80
2022-11-29T13:39:32.705Z,5.58
2022-11-29T13:42:19.104Z,5.88
2022-11-29T13:44:59.209Z,6.36
2022-11-29T13:47:26.912Z,5.88
2022-11-29T13:50:07.488Z,5.79
2022-11-29T13:52:44.015Z,6.14
2022-11-29T13:55:12.011Z,6.04
2022-11-29T13:58:15.347Z,5.84
2022-11-29T14:00:42.566Z,6.11
2022-11-29T14:03:30.851Z,5.64
2022-11-29T14:06:01.448Z,6.14
2022-11-29T14:09:17.991Z,6.15
2022-11-29T14:11:45.811Z,6.28
2022-11-29T14:14:13.894Z,6.50
2022-11-29T14:16:44.311Z,6.50
2022-11-29T14:19:24.332Z,6.21
2022-11-29T14:21:56.587Z,5.93
2022-11-29T14:24:33.619Z,5.97
2022-11-29T14:27:12.204Z,6.56
2022-11-29T14:29:55.364Z,5.92
2022-11-29T14:32:46.343Z,5.70
2022-11-29T14:35:22.680Z,5.94
2022-11-29T14:37:59.332Z,5.95
2022-11-29T14:40:42.845Z,5.83
2022-11-29T14:43:21.315Z,6.10
2022-11-29T14:46:08.103Z,5.60
2022-11-29T14:48:36.837Z,5.38
2022-11-29T14:51:15.684Z,5.55
2022-11-29T14:53:46.276Z,5.70
2022-11-29T14:56:49.843Z,5.49
2022-11-29T14:59:54.683Z,5.75
2022-11-29T15:03:08.599Z,6.24
2022-11-29T15:05:59.846Z,6.10
2022-11-29T15:09:36.781Z,6.18
2022-11-29T15:12:31.007Z,6.26
2022-11-29T15:15:24.572Z,6.15
2022-11-29T15:18:27.242Z,5.85
2022-11-29T15:21:32.329Z,5.81
2022-11-29T15:24:12.161Z,5.83
2022-11-29T15:26:49.871Z,5.90
2022-11-29T15:29:21.805Z,5.63
2022-11-29T15:32:04.147Z,6.21
2022-11-29T15:34:45.300Z,6.35
2022-11-29T15:37:34.596Z,6.20
2022-11-29T15:40:07.213Z,6.38
2022-11-29T15:42:50.500Z,6.07
2022-11-29T15:45:34.145Z,6.23
2022-11-29T15:48:31.127Z,6.40
2022-11-29T15:51:18.904Z,6.10
2022-11-29T15:54:00.403Z,6.10
2022-11-29T15:56:41.126Z,5.96
2022-11-29T15:59:33.307Z,5.90
2022-11-29T16:02:23.884Z,5.90
2022-11-29T16:04:54.509Z,5.75
2022-11-29T16:07:22.760Z,6.18
2022-11-29T16:09:57.999Z,6.10
2022-11-29T16:12:26.724Z,5.95
2022-11-29T16:14:56.592Z,5.60
2022-11-29T16:17:33.443Z,5.82
2022-11-29T16:20:18.779Z,5.97
2022-11-29T16:22:46.527Z,5.94
2022-11-29T16:25:18.763Z,6.08
2022-11-29T16:27:46.636Z,6.26
2022-11-29T16:30:25.956Z,6.25
2022-11-29T16:32:59.484Z,6.24
2022-11-29T16:35:33.946Z,6.24
2022-11-29T16:38:04.163Z,6.09
2022-11-29T16:40:35.481Z,6.16
2022-11-29T16:43:03.334Z,6.01
2022-11-29T16:45:36.133Z,5.59
2022-11-29T16:48:25.514Z,5.45
2022-11-29T16:51:13.333Z,5.92
2022-11-29T16:53:42.915Z,5.65
2022-11-29T16:56:12.534Z,5.84
2022-11-29T16:59:25.116Z,5.60
2022-11-29T17:01:31.156Z,5.64
2022-11-29T17:04:00.572Z,5.42
2022-11-29T17:06:29.471Z,5.64
2022-11-29T17:08:59.263Z,6.08
2022-11-29T17:11:27.230Z,5.84
2022-11-29T17:13:55.003Z,5.77
2022-11-29T17:16:24.425Z,5.56
2022-11-29T17:18:54.873Z,5.81
2022-11-29T17:21:25.187Z,6.02
2022-11-29T17:23:53.499Z,5.71
2022-11-29T17:26:21.922Z,5.60
2022-11-29T17:28:50.912Z,5.64
2022-11-29T17:31:23.427Z,5.69
2022-11-29T17:33:51.623Z,5.89
2022-11-29T17:36:20.666Z,6.09
2022-11-29T17:38:48.717Z,5.71
2022-11-29T17:41:21.092Z,5.72
2022-11-29T17:43:53.311Z,5.96
2022-11-29T17:46:26.539Z,5.89
2022-11-29T17:48:54.893Z,5.88
2022-11-29T17:54:12.110Z,5.99
2022-11-29T17:56:40.084Z,6.09
2022-11-29T17:59:07.781Z,6.21
2022-11-29T18:01:36.379Z,6.10
2022-11-29T18:04:06.106Z,6.08
2022-11-29T18:06:36.061Z,5.74
2022-11-29T18:09:05.239Z,5.58
2022-11-29T18:11:44.925Z,5.39
2022-11-29T18:14:16.087Z,5.65
2022-11-29T18:16:45.748Z,6.02
2022-11-29T18:19:15.657Z,6.05
2022-11-29T18:21:43.981Z,6.38
2022-11-29T18:24:11.818Z,6.05
2022-11-29T18:26:39.787Z,6.19
2022-11-29T18:29:08.215Z,6.03
2022-11-29T18:31:38.699Z,6.07
2022-11-29T18:34:09.656Z,6.17
2022-11-29T18:36:43.045Z,6.33
2022-11-29T18:39:16.473Z,6.11
2022-11-29T18:41:47.052Z,6.47
2022-11-29T18:44:17.394Z,6.24
2022-11-29T18:46:46.187Z,6.33
2022-11-29T18:49:15.885Z,6.57
2022-11-29T18:51:45.154Z,6.13
2022-11-29T18:54:18.310Z,5.63
2022-11-29T18:56:46.111Z,6.12
2022-11-29T18:59:19.034Z,6.22
2022-11-29T19:01:48.043Z,6.34
2022-11-29T19:04:21.121Z,6.45
2022-11-29T19:06:48.655Z,6.43
2022-11-29T19:09:19.240Z,6.51
2022-11-29T19:11:49.073Z,6.66
2022-11-29T19:14:17.293Z,6.60
2022-11-29T19:16:46.456Z,6.54
2022-11-29T19:19:21.282Z,6.47
2022-11-29T19:21:50.126Z,6.33
2022-11-29T19:24:18.344Z,6.90
2022-11-29T19:26:48.884Z,6.73
2022-11-29T19:29:17.382Z,6.83
2022-11-29T19:31:45.044Z,6.59
2022-11-29T19:34:12.657Z,6.85
2022-11-29T19:36:44.640Z,6.74
2022-11-29T19:39:17.411Z,7.01
2022-11-29T19:41:47.631Z,6.96
2022-11-29T19:44:26.525Z,6.57
2022-11-29T19:46:56.986Z,6.59
2022-11-29T19:49:24.934Z,6.78
2022-11-29T19:51:52.384Z,6.72
2022-11-29T19:54:20.683Z,6.97
2022-11-29T19:56:48.278Z,6.87
2022-11-29T19:59:15.896Z,6.78
2022-11-29T20:01:43.997Z,6.62
2022-11-29T20:04:13.812Z,6.84
2022-11-29T20:06:41.809Z,6.75
2022-11-29T20:09:15.611Z,6.31
2022-11-29T20:11:44.830Z,6.54
2022-11-29T20:14:14.770Z,6.57
2022-11-29T20:16:42.388Z,6.84
2022-11-29T20:19:13.777Z,6.46
2022-11-29T20:21:43.994Z,6.66
2022-11-29T20:24:13.993Z,6.60
2022-11-29T20:26:43.718Z,6.98
2022-11-29T20:29:12.145Z,7.05
2022-11-29T20:31:45.948Z,6.71
2022-11-29T20:34:16.917Z,6.80
2022-11-29T20:37:07.308Z,6.72
2022-11-29T20:39:47.510Z,6.77
2022-11-29T20:42:46.159Z,6.94
2022-11-29T20:45:15.351Z,6.88
2022-11-29T20:48:11.972Z,7.03
2022-11-29T20:50:40.529Z,7.06
2022-11-29T20:53:11.900Z,7.07
2022-11-29T20:55:44.901Z,7.04
2022-11-29T20:58:14.289Z,7.27
2022-11-29T21:00:41.920Z,7.11
2022-11-29T21:03:16.210Z,7.05
2022-11-29T21:05:44.331Z,7.19
2022-11-29T21:08:12.815Z,7.21
2022-11-29T21:10:40.727Z,7.60
2022-11-29T21:13:10.768Z,7.17
2022-11-29T21:15:40.393Z,7.20
2022-11-29T21:18:13.058Z,7.14
2022-11-29T21:20:41.180Z,7.19
2022-11-29T21:23:32.964Z,7.13
2022-11-29T21:26:10.753Z,7.10
2022-11-29T21:28:43.236Z,6.80
2022-11-29T21:31:12.006Z,6.92
2022-11-29T21:33:40.440Z,7.06
2022-11-29T21:36:09.377Z,7.21
2022-11-29T21:38:36.852Z,7.12
2022-11-29T21:41:04.780Z,7.14
2022-11-29T21:43:58.346Z,7.24
2022-11-29T21:46:21.086Z,7.05
2022-11-29T21:48:50.056Z,7.02
2022-11-29T21:51:17.695Z,6.58
2022-11-29T21:53:46.052Z,6.92
2022-11-29T21:56:15.280Z,6.98
2022-11-29T21:58:42.967Z,6.88
2022-11-29T22:01:14.117Z,6.76
2022-11-29T22:03:42.368Z,6.86
2022-11-29T22:06:16.579Z,7.11
2022-11-29T22:08:44.648Z,7.52
2022-11-29T22:11:14.655Z,7.31
2022-11-29T22:14:02.722Z,7.26
2022-11-29T22:16:30.632Z,7.30
2022-11-29T22:18:58.290Z,7.22
2022-11-29T22:21:25.826Z,7.25
2022-11-29T22:23:53.771Z,7.37
2022-11-29T22:26:22.013Z,7.43
2022-11-29T22:28:49.453Z,7.77
2022-11-29T22:31:17.374Z,7.68
2022-11-29T22:33:45.263Z,7.25
2022-11-29T22:36:13.228Z,7.47
2022-11-29T22:38:41.136Z,7.19
2022-11-29T22:41:10.821Z,7.30
2022-11-29T22:43:39.719Z,7.17
2022-11-29T22:46:18.584Z,7.39
2022-11-29T22:48:48.239Z,7.49
2022-11-29T22:51:18.889Z,7.36
2022-11-29T22:53:51.609Z,7.42
2022-11-29T22:56:22.599Z,7.43
2022-11-29T22:58:50.462Z,7.56
2022-11-29T23:01:23.747Z,7.50
2022-11-29T23:03:54.353Z,7.38
2022-11-29T23:06:24.743Z,7.61
2022-11-29T23:08:54.200Z,7.61
2022-11-29T23:11:24.197Z,7.58
2022-11-29T23:13:52.125Z,7.73
2022-11-29T23:16:23.219Z,7.53
2022-11-29T23:18:53.345Z,7.50
2022-11-29T23:21:23.424Z,7.75
2022-11-29T23:23:56.048Z,7.65
2022-11-29T23:26:30.342Z,7.60
2022-11-29T23:28:58.614Z,7.66
2022-11-29T23:31:28.968Z,7.61
2022-11-29T23:33:56.508Z,7.44
2022-11-29T23:36:23.929Z,7.54
2022-11-29T23:38:52.140Z,7.39
2022-11-29T23:41:19.668Z,7.63
2022-11-29T23:43:47.505Z,7.63
2022-11-29T23:46:20.352Z,7.57
2022-11-29T23:48:48.658Z,7.38
2022-11-29T23:51:17.584Z,7.60
2022-11-29T23:53:46.724Z,7.77
2022-11-29T23:56:16.571Z,7.46
2022-11-29T23:58:45.993Z,7.69
